Time;durP1;ratioP1;P1;durP2;ratioP2;P2;SDS_P1;SDS_P2;PMS_P1;PMS_P2;Temp;Humidity;BMP_temperature;BMP_pressure;BME280_temperature;BME280_humidity;BME280_pressure;Samples;Min_cycle;Max_cycle;Signal;HPM_P1;HPM_P2
2023/02/16 00:00:50;;;;;;;38.03;23.48;;;1.20;99.90;;;;;;4991747;28;20376;-60
2023/02/16 00:03:19;;;;;;;32.85;21.40;;;1.30;99.90;;;;;;5005934;28;20022;-59
2023/02/16 00:05:44;;;;;;;29.75;21.25;;;1.30;99.90;;;;;;5001449;28;20572;-59
2023/02/16 00:08:10;;;;;;;32.92;20.70;;;1.30;99.90;;;;;;4985968;28;20112;-61
2023/02/16 00:10:37;;;;;;;30.88;20.88;;;1.30;99.90;;;;;;5000512;28;20389;-60
2023/02/16 00:16:10;;;;;;;33.85;23.55;;;1.30;99.90;;;;;;4997128;28;20408;-61
2023/02/16 00:18:36;;;;;;;38.90;23.15;;;1.30;99.90;;;;;;4983638;28;20382;-60
2023/02/16 00:21:01;;;;;;;37.25;23.60;;;1.30;99.90;;;;;;4996518;28;20080;-60
2023/02/16 00:23:27;;;;;;;32.28;22.67;;;1.30;99.90;;;;;;5001515;28;20027;-61
2023/02/16 00:25:52;;;;;;;31.40;22.55;;;1.30;99.90;;;;;;5007489;28;20072;-58
2023/02/16 00:28:19;;;;;;;38.40;21.65;;;1.30;99.90;;;;;;4997033;28;20057;-60
2023/02/16 00:30:46;;;;;;;31.50;22.75;;;1.30;99.90;;;;;;5009932;28;20265;-59
2023/02/16 00:33:16;;;;;;;35.13;23.23;;;1.30;99.90;;;;;;5002291;28;20030;-57
2023/02/16 00:35:43;;;;;;;35.35;20.67;;;1.40;99.90;;;;;;5003078;28;20109;-58
2023/02/16 00:38:09;;;;;;;36.47;23.50;;;1.40;99.90;;;;;;5002734;28;20058;-59
2023/02/16 00:40:34;;;;;;;32.97;21.85;;;1.40;99.90;;;;;;4994014;28;20633;-60
2023/02/16 00:43:00;;;;;;;37.38;22.27;;;1.40;99.90;;;;;;5000590;28;20061;-59
2023/02/16 00:45:26;;;;;;;34.95;23.40;;;1.40;99.90;;;;;;4980346;28;20034;-59
2023/02/16 00:47:53;;;;;;;37.80;23.70;;;1.40;99.90;;;;;;4991796;28;20373;-59
2023/02/16 00:50:33;;;;;;;37.17;23.25;;;1.40;99.90;;;;;;5001355;28;20033;-61
2023/02/16 00:53:01;;;;;;;37.38;23.58;;;1.40;99.90;;;;;;4990845;28;20029;-60
2023/02/16 00:55:30;;;;;;;35.10;22.85;;;1.40;99.90;;;;;;5003993;28;20022;-59
2023/02/16 00:58:16;;;;;;;33.50;22.90;;;1.40;99.90;;;;;;5004045;28;20022;-60
2023/02/16 01:00:54;;;;;;;33.20;22.58;;;1.40;99.90;;;;;;4999250;28;20108;-59
2023/02/16 01:03:25;;;;;;;38.10;24.75;;;1.40;99.90;;;;;;4990497;28;20023;-61
2023/02/16 01:11:06;;;;;;;38.90;23.30;;;1.40;99.90;;;;;;4989124;28;20030;-60
2023/02/16 01:11:22;;;;;;;37.85;23.95;;;1.30;99.90;;;;;;4998362;28;20401;-60
2023/02/16 01:13:50;;;;;;;33.40;22.52;;;1.30;99.90;;;;;;5000808;28;20397;-61
2023/02/16 01:16:21;;;;;;;35.63;22.25;;;1.30;99.90;;;;;;5003953;28;20033;-60
2023/02/16 01:18:48;;;;;;;37.83;22.65;;;1.30;99.90;;;;;;5005188;28;20109;-61
2023/02/16 01:21:13;;;;;;;33.72;22.40;;;1.30;99.90;;;;;;4998340;28;20035;-61
2023/02/16 01:23:39;;;;;;;30.13;20.42;;;1.30;99.90;;;;;;5000616;28;20580;-60
2023/02/16 01:26:17;;;;;;;38.15;24.05;;;1.20;99.90;;;;;;4982151;28;20050;-60
2023/02/16 01:28:43;;;;;;;35.75;23.65;;;1.20;99.90;;;;;;4983421;28;20033;-60
2023/02/16 01:31:10;;;;;;;39.42;24.38;;;1.20;99.90;;;;;;4999281;28;20069;-59
2023/02/16 01:33:35;;;;;;;33.30;22.40;;;1.20;99.90;;;;;;5002863;28;20435;-59
2023/02/16 01:36:03;;;;;;;44.20;24.13;;;1.20;99.90;;;;;;5004565;28;20030;-60
2023/02/16 01:38:29;;;;;;;34.95;23.80;;;1.20;99.90;;;;;;4979978;28;20039;-58
2023/02/16 01:41:21;;;;;;;41.30;25.42;;;1.20;99.90;;;;;;4993832;28;20027;-60
2023/02/16 01:44:09;;;;;;;37.10;23.20;;;1.20;99.90;;;;;;5002002;28;20416;-60
2023/02/16 01:46:41;;;;;;;39.10;24.90;;;1.30;99.90;;;;;;4983480;28;20058;-59
2023/02/16 01:49:15;;;;;;;40.38;24.10;;;1.30;99.90;;;;;;5001935;28;20027;-60
2023/02/16 01:51:54;;;;;;;44.85;24.92;;;1.30;99.90;;;;;;5001096;28;20030;-60
2023/02/16 01:54:32;;;;;;;44.42;25.20;;;1.30;99.90;;;;;;5004091;28;20018;-58
2023/02/16 01:57:22;;;;;;;46.25;26.17;;;1.30;99.90;;;;;;4997628;28;20018;-58
2023/02/16 01:59:47;;;;;;;49.33;28.05;;;1.30;99.90;;;;;;4999200;28;20038;-60
2023/02/16 02:02:20;;;;;;;47.25;27.40;;;1.30;99.90;;;;;;4986021;28;20587;-60
2023/02/16 02:07:46;;;;;;;42.00;27.85;;;1.30;99.90;;;;;;4997862;28;20084;-60
2023/02/16 02:10:34;;;;;;;45.22;27.85;;;1.30;99.90;;;;;;4989857;28;20025;-61
2023/02/16 02:13:18;;;;;;;43.78;27.35;;;1.30;99.90;;;;;;4991365;28;20105;-59
2023/02/16 02:15:44;;;;;;;42.08;26.60;;;1.30;99.90;;;;;;5001575;28;20033;-58
2023/02/16 02:18:10;;;;;;;49.22;26.45;;;1.30;99.90;;;;;;4994110;28;20026;-58
2023/02/16 02:24:11;;;;;;;46.17;27.40;;;1.30;99.90;;;;;;4995745;28;20551;-60
2023/02/16 02:27:02;;;;;;;42.05;26.17;;;1.30;99.90;;;;;;4993509;28;20409;-60
2023/02/16 02:30:07;;;;;;;47.35;27.02;;;1.30;99.90;;;;;;5001377;28;20060;-60
2023/02/16 02:32:51;;;;;;;48.47;27.73;;;1.30;99.90;;;;;;4995952;28;20095;-58
2023/02/16 02:35:28;;;;;;;46.75;29.42;;;1.30;99.90;;;;;;4993119;28;20481;-59
2023/02/16 02:38:06;;;;;;;47.90;29.33;;;1.30;99.90;;;;;;4980620;28;20030;-60
2023/02/16 02:40:48;;;;;;;53.55;28.75;;;1.40;99.90;;;;;;4998605;28;20023;-60
2023/02/16 02:43:46;;;;;;;51.28;30.63;;;1.40;99.90;;;;;;5000959;28;20044;-59
2023/02/16 02:46:32;;;;;;;51.25;30.50;;;1.40;99.90;;;;;;4952282;28;20034;-60
2023/02/16 02:48:58;;;;;;;46.72;29.65;;;1.40;99.90;;;;;;4996484;28;20030;-58
2023/02/16 02:51:30;;;;;;;48.80;30.25;;;1.40;99.90;;;;;;5005735;28;20531;-58
2023/02/16 03:03:04;;;;;;;52.10;31.70;;;1.40;99.90;;;;;;4990653;28;20084;-59
2023/02/16 03:05:33;;;;;;;55.40;32.28;;;1.40;99.90;;;;;;5001890;28;20077;-60
2023/02/16 03:08:13;;;;;;;56.33;30.73;;;1.40;99.90;;;;;;5001889;28;20038;-59
2023/02/16 03:13:35;;;;;;;49.53;30.58;;;1.40;99.90;;;;;;4999165;28;20131;-59
2023/02/16 03:16:06;;;;;;;48.25;30.13;;;1.50;99.90;;;;;;4997805;28;20070;-58
2023/02/16 03:29:38;;;;;;;59.47;32.40;;;1.40;99.90;;;;;;4996805;28;20037;-59
2023/02/16 03:32:04;;;;;;;51.08;32.50;;;1.40;99.90;;;;;;5005159;28;20080;-60
2023/02/16 03:34:31;;;;;;;56.38;32.67;;;1.40;99.90;;;;;;5003772;28;20040;-59
2023/02/16 03:36:59;;;;;;;53.88;33.05;;;1.40;99.90;;;;;;4980104;28;20022;-61
2023/02/16 03:39:26;;;;;;;54.17;32.70;;;1.40;99.90;;;;;;5001680;28;20396;-59
2023/02/16 03:41:54;;;;;;;58.92;33.35;;;1.40;99.90;;;;;;4982443;28;20037;-59
2023/02/16 03:44:20;;;;;;;55.55;33.17;;;1.40;99.90;;;;;;4997721;28;20129;-56
2023/02/16 03:46:49;;;;;;;52.95;32.17;;;1.40;99.90;;;;;;4997664;28;20447;-59
2023/02/16 03:49:17;;;;;;;51.80;32.25;;;1.40;99.90;;;;;;5005398;28;20061;-58
2023/02/16 03:51:43;;;;;;;53.20;31.58;;;1.40;99.90;;;;;;5005423;28;20084;-58
2023/02/16 03:54:08;;;;;;;57.20;33.00;;;1.40;99.90;;;;;;5008205;28;20022;-58
2023/02/16 03:56:34;;;;;;;56.80;34.55;;;1.40;99.90;;;;;;5000412;28;20027;-58
2023/02/16 03:58:59;;;;;;;54.08;31.05;;;1.40;99.90;;;;;;5001761;28;20041;-59
2023/02/16 04:01:25;;;;;;;58.30;32.33;;;1.30;99.90;;;;;;5007936;28;20044;-60
2023/02/16 04:03:50;;;;;;;53.42;33.53;;;1.30;99.90;;;;;;4998829;28;20412;-58
2023/02/16 04:06:16;;;;;;;57.03;32.67;;;1.30;99.90;;;;;;5006424;28;20089;-56
2023/02/16 04:08:42;;;;;;;63.05;34.38;;;1.30;99.90;;;;;;4997934;28;20190;-58
2023/02/16 04:13:52;;;;;;;52.97;32.28;;;1.40;99.90;;;;;;4994094;28;20041;-60
2023/02/16 04:16:18;;;;;;;61.42;33.42;;;1.40;99.90;;;;;;4982937;28;20113;-60
2023/02/16 04:18:44;;;;;;;63.38;34.92;;;1.30;99.90;;;;;;4992655;28;20231;-59
2023/02/16 04:21:09;;;;;;;57.50;34.00;;;1.40;99.90;;;;;;5005853;28;20023;-58
2023/02/16 04:23:35;;;;;;;51.95;31.95;;;1.40;99.90;;;;;;5002469;28;20030;-59
2023/02/16 04:26:00;;;;;;;48.63;31.17;;;1.30;99.90;;;;;;5004980;28;20033;-59
2023/02/16 04:28:26;;;;;;;51.53;30.23;;;1.30;99.90;;;;;;5001703;28;20389;-60
2023/02/16 04:30:51;;;;;;;50.47;31.30;;;1.30;99.90;;;;;;4992602;28;20034;-59
2023/02/16 04:33:17;;;;;;;54.20;32.22;;;1.30;99.90;;;;;;4999024;28;20058;-59
2023/02/16 04:35:42;;;;;;;56.95;32.70;;;1.30;99.90;;;;;;4991741;28;20033;-56
2023/02/16 04:38:08;;;;;;;53.17;30.90;;;1.30;99.90;;;;;;5003924;28;20030;-58
2023/02/16 04:40:34;;;;;;;50.70;30.15;;;1.20;99.90;;;;;;5001561;28;20057;-57
2023/02/16 04:42:59;;;;;;;57.63;32.80;;;1.20;99.90;;;;;;4983457;28;20525;-57
2023/02/16 04:45:25;;;;;;;50.70;32.25;;;1.30;99.90;;;;;;4973851;28;20042;-60
2023/02/16 04:47:50;;;;;;;50.63;30.98;;;1.20;99.90;;;;;;5005325;28;20112;-56
2023/02/16 04:50:16;;;;;;;50.88;31.40;;;1.20;99.90;;;;;;4994117;28;20097;-55
2023/02/16 04:52:41;;;;;;;54.35;31.30;;;1.20;99.90;;;;;;5000612;28;20050;-57
2023/02/16 04:55:09;;;;;;;49.45;33.17;;;1.20;99.90;;;;;;4988492;28;20065;-58
2023/02/16 04:57:36;;;;;;;56.20;32.92;;;1.20;99.90;;;;;;4974221;28;20512;-59
2023/02/16 05:00:02;;;;;;;48.38;30.92;;;1.20;99.90;;;;;;4995513;28;20395;-59
2023/02/16 05:02:28;;;;;;;57.35;33.38;;;1.20;99.90;;;;;;4992645;28;20036;-59
2023/02/16 05:04:53;;;;;;;54.75;33.72;;;1.20;99.90;;;;;;4977690;28;20030;-58
2023/02/16 05:07:19;;;;;;;54.15;32.35;;;1.20;99.90;;;;;;4991805;28;20034;-59
2023/02/16 05:09:44;;;;;;;57.38;33.60;;;1.20;99.90;;;;;;5002955;28;20044;-60
2023/02/16 05:14:54;;;;;;;50.38;31.60;;;1.20;99.90;;;;;;4984474;28;20234;-59
2023/02/16 05:17:23;;;;;;;50.83;31.38;;;1.20;99.90;;;;;;4994022;28;20062;-58
2023/02/16 05:19:51;;;;;;;55.38;32.38;;;1.20;99.90;;;;;;5007568;28;20033;-59
2023/02/16 05:22:17;;;;;;;55.70;32.42;;;1.20;99.90;;;;;;5002406;28;20514;-58
2023/02/16 05:24:42;;;;;;;51.70;31.48;;;1.20;99.90;;;;;;5000825;28;20037;-59
2023/02/16 05:27:12;;;;;;;54.83;32.13;;;1.20;99.90;;;;;;5000868;28;20022;-58
2023/02/16 05:29:38;;;;;;;51.63;32.45;;;1.20;99.90;;;;;;5000072;28;20038;-60
2023/02/16 05:32:04;;;;;;;55.88;32.60;;;1.20;99.90;;;;;;5016207;22;20408;-50
2023/02/16 05:34:30;;;;;;;57.58;34.60;;;1.20;99.90;;;;;;5013268;28;20469;-54
2023/02/16 05:36:55;;;;;;;52.92;32.70;;;1.20;99.90;;;;;;5017865;28;20487;-53
2023/02/16 05:39:21;;;;;;;54.60;34.03;;;1.20;99.90;;;;;;5016734;28;20213;-52
2023/02/16 05:41:48;;;;;;;53.53;34.30;;;1.20;99.90;;;;;;5017565;28;20418;-51
2023/02/16 05:44:14;;;;;;;51.20;32.13;;;1.30;99.90;;;;;;5020146;28;20052;-55
2023/02/16 05:46:40;;;;;;;52.50;31.27;;;1.30;99.90;;;;;;4996096;28;20084;-52
2023/02/16 05:49:06;;;;;;;54.42;33.80;;;1.30;99.90;;;;;;5021196;28;20200;-52
2023/02/16 05:51:32;;;;;;;52.67;31.70;;;1.30;99.90;;;;;;5021148;28;20029;-52
2023/02/16 05:53:58;;;;;;;53.42;33.50;;;1.30;99.90;;;;;;4999472;28;20034;-52
2023/02/16 05:56:24;;;;;;;57.33;34.25;;;1.30;99.90;;;;;;5014761;28;20049;-52
2023/02/16 05:58:50;;;;;;;62.05;34.65;;;1.30;99.90;;;;;;5014672;28;20120;-53
2023/02/16 06:01:17;;;;;;;57.53;34.20;;;1.40;99.90;;;;;;5021180;28;20475;-55
2023/02/16 06:03:42;;;;;;;55.80;34.67;;;1.40;99.90;;;;;;5002065;28;20026;-50
2023/02/16 06:06:08;;;;;;;61.80;34.20;;;1.50;99.90;;;;;;5020919;28;20120;-52
2023/02/16 06:08:35;;;;;;;57.53;33.67;;;1.50;99.90;;;;;;5013661;28;20026;-51
2023/02/16 06:11:01;;;;;;;64.22;35.33;;;1.50;99.90;;;;;;5004022;28;20064;-53
2023/02/16 06:13:26;;;;;;;55.92;33.45;;;1.50;99.90;;;;;;5016832;28;20050;-55
2023/02/16 06:15:55;;;;;;;54.28;33.47;;;1.50;99.90;;;;;;5016168;28;20032;-54
2023/02/16 06:18:21;;;;;;;53.55;33.08;;;1.50;99.90;;;;;;5024927;28;20032;-53
2023/02/16 06:20:47;;;;;;;52.97;31.65;;;1.50;99.90;;;;;;5017678;28;20124;-52
2023/02/16 06:23:13;;;;;;;57.35;32.08;;;1.50;99.90;;;;;;5018071;28;20030;-52
2023/02/16 06:25:48;;;;;;;58.53;34.58;;;1.50;99.90;;;;;;5015085;28;20050;-54
2023/02/16 06:28:14;;;;;;;52.92;32.55;;;1.60;99.90;;;;;;5017580;28;20080;-52
2023/02/16 06:30:41;;;;;;;55.00;33.78;;;1.50;99.90;;;;;;5024253;28;20526;-52
2023/02/16 06:33:07;;;;;;;57.67;34.20;;;1.60;99.90;;;;;;5017222;28;20512;-52
2023/02/16 06:35:33;;;;;;;57.55;34.47;;;1.60;99.90;;;;;;5025095;28;20047;-52
2023/02/16 06:37:58;;;;;;;58.08;35.50;;;1.60;99.90;;;;;;4998094;28;20491;-56
2023/02/16 06:40:24;;;;;;;58.10;35.90;;;1.60;99.90;;;;;;5010455;28;20041;-51
2023/02/16 06:42:50;;;;;;;63.45;36.88;;;1.70;99.90;;;;;;5006607;28;20112;-54
2023/02/16 06:45:18;;;;;;;62.63;34.25;;;1.60;99.90;;;;;;5010789;28;20049;-56
2023/02/16 06:47:43;;;;;;;54.55;34.17;;;1.70;99.90;;;;;;5017436;28;20058;-53
2023/02/16 06:50:09;;;;;;;61.38;34.22;;;1.70;99.90;;;;;;4998736;28;20392;-54
2023/02/16 06:52:35;;;;;;;57.75;34.55;;;1.80;99.90;;;;;;5005919;28;20143;-52
2023/02/16 06:55:01;;;;;;;54.38;34.95;;;1.80;99.90;;;;;;5016525;28;20072;-52
2023/02/16 06:57:27;;;;;;;59.53;35.40;;;1.80;99.90;;;;;;4999888;28;20025;-51
2023/02/16 06:59:55;;;;;;;61.80;35.35;;;1.90;99.90;;;;;;5021321;28;20115;-53
2023/02/16 07:02:20;;;;;;;59.70;36.50;;;1.90;99.90;;;;;;5016956;28;20033;-54
2023/02/16 07:04:46;;;;;;;59.30;35.13;;;1.90;99.90;;;;;;5023819;28;20025;-54
2023/02/16 07:07:11;;;;;;;61.38;36.13;;;2.00;99.90;;;;;;5014262;28;20030;-54
2023/02/16 07:09:37;;;;;;;62.40;36.75;;;2.00;99.90;;;;;;5006837;28;20049;-52
2023/02/16 07:12:03;;;;;;;57.10;37.10;;;2.10;99.90;;;;;;5003211;28;20393;-52
2023/02/16 07:14:30;;;;;;;60.28;37.15;;;2.10;99.90;;;;;;5017952;28;20155;-51
2023/02/16 07:16:58;;;;;;;55.22;34.90;;;2.10;99.90;;;;;;5005098;28;20159;-50
2023/02/16 07:19:24;;;;;;;62.17;37.90;;;2.20;99.90;;;;;;5003837;28;20026;-51
2023/02/16 07:21:50;;;;;;;57.53;35.47;;;2.20;99.90;;;;;;5001185;28;20021;-53
2023/02/16 07:24:15;;;;;;;63.13;37.60;;;2.20;99.90;;;;;;5023465;28;20037;-53
2023/02/16 07:26:41;;;;;;;58.05;36.90;;;2.30;99.90;;;;;;5023442;28;20029;-51
2023/02/16 07:29:06;;;;;;;66.32;39.45;;;2.30;99.90;;;;;;5024236;28;20026;-51
2023/02/16 07:31:32;;;;;;;59.78;38.03;;;2.30;99.90;;;;;;5004858;28;20451;-52
2023/02/16 07:33:58;;;;;;;64.75;37.90;;;2.40;99.90;;;;;;5024568;28;20419;-50
2023/02/16 07:36:23;;;;;;;61.50;38.28;;;2.50;99.90;;;;;;5024260;28;20029;-53
2023/02/16 07:38:49;;;;;;;62.20;37.08;;;2.50;99.90;;;;;;5006056;28;20116;-51
2023/02/16 07:41:14;;;;;;;64.28;38.22;;;2.50;99.90;;;;;;5020807;28;20460;-51
2023/02/16 07:43:41;;;;;;;60.35;37.65;;;2.60;99.90;;;;;;5023203;28;20026;-50
2023/02/16 07:46:07;;;;;;;60.25;36.42;;;2.60;99.90;;;;;;5018628;28;20050;-50
2023/02/16 07:48:32;;;;;;;61.97;38.28;;;2.70;99.90;;;;;;5021025;28;20058;-50
2023/02/16 07:50:59;;;;;;;63.88;38.00;;;2.70;99.90;;;;;;5002314;28;20384;-52
2023/02/16 07:53:24;;;;;;;62.65;37.90;;;2.80;99.90;;;;;;5015193;28;20021;-53
2023/02/16 07:55:50;;;;;;;61.50;36.55;;;2.90;99.90;;;;;;4997401;28;20017;-50
2023/02/16 07:58:26;;;;;;;55.33;36.70;;;3.00;99.90;;;;;;5018517;28;20079;-52
2023/02/16 08:00:56;;;;;;;66.18;37.95;;;3.00;99.90;;;;;;5011515;28;20287;-50
2023/02/16 08:03:22;;;;;;;60.65;37.03;;;3.10;99.90;;;;;;5023081;28;20075;-51
2023/02/16 08:05:50;;;;;;;57.03;37.72;;;3.20;99.90;;;;;;5023643;28;20025;-51
2023/02/16 08:08:16;;;;;;;59.50;37.40;;;3.20;99.90;;;;;;5006440;28;20526;-53
2023/02/16 08:10:41;;;;;;;62.92;40.30;;;3.30;99.90;;;;;;5025108;28;20054;-51
2023/02/16 08:13:07;;;;;;;62.45;39.13;;;3.30;99.90;;;;;;5020225;28;20034;-51
2023/02/16 08:15:32;;;;;;;54.60;35.58;;;3.40;99.90;;;;;;5001905;28;20483;-50
2023/02/16 08:17:58;;;;;;;61.10;39.70;;;3.40;99.90;;;;;;5006521;28;20642;-50
2023/02/16 08:20:23;;;;;;;58.67;37.13;;;3.40;99.90;;;;;;5022587;28;20042;-50
2023/02/16 08:22:49;;;;;;;57.50;38.63;;;3.50;99.90;;;;;;5019707;28;20021;-51
2023/02/16 08:25:14;;;;;;;55.70;36.28;;;3.60;99.90;;;;;;5006728;28;20032;-50
2023/02/16 08:27:41;;;;;;;56.83;36.10;;;3.70;99.90;;;;;;5021305;28;20032;-54
2023/02/16 08:30:11;;;;;;;57.95;37.33;;;3.70;99.90;;;;;;5023927;28;20024;-50
2023/02/16 08:32:39;;;;;;;58.63;36.65;;;3.80;99.90;;;;;;5020532;28;20040;-51
2023/02/16 08:35:06;;;;;;;56.17;37.55;;;3.90;99.90;;;;;;5019031;28;20403;-54
2023/02/16 08:37:32;;;;;;;51.85;33.45;;;3.90;99.90;;;;;;5022271;28;20057;-52
2023/02/16 08:39:59;;;;;;;57.55;36.30;;;4.00;99.90;;;;;;5019461;28;20022;-52
2023/02/16 08:42:25;;;;;;;58.10;37.65;;;4.00;99.90;;;;;;5008745;28;20021;-52
2023/02/16 08:44:51;;;;;;;59.53;34.72;;;4.10;99.90;;;;;;5019836;28;20432;-54
2023/02/16 08:47:19;;;;;;;54.80;35.05;;;4.20;99.90;;;;;;5025419;28;20022;-54
2023/02/16 08:49:44;;;;;;;55.45;34.90;;;4.20;99.90;;;;;;5014164;28;20033;-54
2023/02/16 08:52:11;;;;;;;54.45;34.83;;;4.40;99.90;;;;;;5018737;28;20371;-54
2023/02/16 08:54:38;;;;;;;58.03;35.10;;;4.40;99.90;;;;;;5015280;28;20115;-51
2023/02/16 08:57:04;;;;;;;52.45;33.53;;;4.50;99.90;;;;;;5020521;28;20108;-51
2023/02/16 08:59:29;;;;;;;54.30;34.67;;;4.50;99.90;;;;;;5018399;28;20120;-54
2023/02/16 09:01:59;;;;;;;51.70;33.75;;;4.60;99.90;;;;;;4987908;28;20022;-53
2023/02/16 09:04:27;;;;;;;52.85;35.60;;;4.70;99.90;;;;;;5018635;28;20429;-53
2023/02/16 09:06:55;;;;;;;51.90;33.60;;;4.80;99.90;;;;;;5017531;28;20025;-56
2023/02/16 09:09:21;;;;;;;48.25;32.15;;;4.80;99.90;;;;;;5019475;28;20512;-55
2023/02/16 09:11:48;;;;;;;48.38;32.10;;;4.80;99.90;;;;;;5024748;28;20496;-53
2023/02/16 09:14:15;;;;;;;50.15;31.15;;;4.80;99.90;;;;;;5019100;28;20034;-54
2023/02/16 09:16:44;;;;;;;47.78;31.45;;;4.90;99.90;;;;;;5019282;28;20021;-51
2023/02/16 09:19:14;;;;;;;48.03;32.10;;;4.90;99.90;;;;;;5018838;28;20379;-54
2023/02/16 09:21:40;;;;;;;46.20;32.30;;;4.90;99.90;;;;;;5019381;28;20022;-55
2023/02/16 09:24:07;;;;;;;47.08;31.95;;;4.90;99.90;;;;;;5017302;28;20026;-55
2023/02/16 09:26:41;;;;;;;52.33;32.78;;;4.90;99.90;;;;;;5019328;28;20021;-54
2023/02/16 09:29:07;;;;;;;44.63;32.25;;;5.00;99.90;;;;;;5016186;28;20392;-54
2023/02/16 09:31:35;;;;;;;48.75;32.15;;;5.00;99.90;;;;;;5020113;28;20057;-57
2023/02/16 09:34:05;;;;;;;46.88;32.28;;;5.10;99.90;;;;;;4994342;28;20038;-51
2023/02/16 09:36:30;;;;;;;46.95;31.85;;;5.10;99.90;;;;;;4999310;28;20037;-52
2023/02/16 09:38:57;;;;;;;46.40;32.30;;;5.20;99.90;;;;;;4996908;28;20026;-55
2023/02/16 09:42:10;;;;;;;50.58;31.88;;;5.30;99.90;;;;;;5002672;28;20036;-53
2023/02/16 09:44:39;;;;;;;51.08;32.88;;;5.40;99.90;;;;;;4933897;28;20283;-51
2023/02/16 09:47:30;;;;;;;45.50;32.28;;;5.40;99.90;;;;;;5022323;28;20033;-55
2023/02/16 09:50:05;;;;;;;51.92;32.63;;;5.50;99.90;;;;;;4992535;28;20037;-54
2023/02/16 09:52:41;;;;;;;49.33;32.65;;;5.50;99.90;;;;;;5008508;28;20025;-55
2023/02/16 09:55:15;;;;;;;47.88;32.15;;;5.60;99.90;;;;;;5001619;28;20217;-52
2023/02/16 09:57:55;;;;;;;44.17;31.38;;;5.70;99.90;;;;;;5002828;28;20021;-53
2023/02/16 10:00:33;;;;;;;50.03;33.63;;;5.80;99.90;;;;;;5019595;28;20030;-55
2023/02/16 10:03:22;;;;;;;48.35;32.33;;;5.80;99.90;;;;;;5004830;28;20506;-52
2023/02/16 10:06:26;;;;;;;48.65;32.67;;;6.00;99.90;;;;;;5021280;28;20029;-55
2023/02/16 10:08:57;;;;;;;47.53;32.78;;;6.20;99.90;;;;;;4995345;28;20515;-52
2023/02/16 10:11:37;;;;;;;44.60;31.35;;;6.30;99.90;;;;;;5004248;28;20021;-56
2023/02/16 10:14:30;;;;;;;47.00;32.78;;;6.30;99.90;;;;;;5010681;28;20018;-54
2023/02/16 10:17:02;;;;;;;45.22;30.48;;;6.30;99.90;;;;;;5008873;28;20025;-54
2023/02/16 10:19:42;;;;;;;49.85;31.55;;;6.20;99.90;;;;;;5018132;28;20496;-57
2023/02/16 10:22:14;;;;;;;45.10;30.38;;;6.20;99.90;;;;;;5021456;28;20575;-54
2023/02/16 10:24:59;;;;;;;47.97;30.77;;;6.10;99.90;;;;;;5018702;28;20488;-57
2023/02/16 10:27:33;;;;;;;47.25;31.67;;;6.10;99.90;;;;;;5019841;28;20033;-52
2023/02/16 10:29:59;;;;;;;48.70;31.52;;;6.10;99.90;;;;;;5008075;28;20061;-52
2023/02/16 10:32:29;;;;;;;47.83;31.63;;;6.10;99.90;;;;;;5021311;28;20069;-52
2023/02/16 10:35:12;;;;;;;48.40;33.35;;;6.00;99.90;;;;;;5014886;28;20044;-52
2023/02/16 10:37:51;;;;;;;47.97;32.63;;;6.10;99.90;;;;;;5003512;28;20037;-56
2023/02/16 10:40:34;;;;;;;45.83;32.45;;;6.10;99.90;;;;;;5007143;28;20034;-56
2023/02/16 10:43:24;;;;;;;50.30;30.40;;;6.10;99.90;;;;;;5012242;28;20029;-53
2023/02/16 10:45:57;;;;;;;46.88;31.58;;;6.10;99.90;;;;;;4987884;28;20025;-54
2023/02/16 10:48:23;;;;;;;42.67;30.88;;;6.10;99.90;;;;;;5019452;28;20022;-50
2023/02/16 10:51:11;;;;;;;46.78;32.45;;;6.20;99.90;;;;;;4992995;28;20042;-56
2023/02/16 10:53:40;;;;;;;;;;;6.20;99.90;;;;;;5018222;28;20032;-51
2023/02/16 10:56:39;;;;;;;48.95;31.45;;;6.30;99.90;;;;;;5017554;28;19905;-52
2023/02/16 10:59:12;;;;;;;45.20;32.42;;;6.40;99.90;;;;;;5006872;28;20515;-55
2023/02/16 11:01:56;;;;;;;45.58;31.33;;;6.50;99.90;;;;;;5002301;28;20030;-54
2023/02/16 11:04:40;;;;;;;49.20;32.50;;;6.50;99.90;;;;;;5016720;28;20049;-56
2023/02/16 11:07:05;;;;;;;45.25;31.65;;;6.70;99.90;;;;;;5015082;28;20026;-53
2023/02/16 11:09:32;;;;;;;43.35;30.88;;;6.80;99.90;;;;;;5000870;28;20040;-53
2023/02/16 11:11:58;;;;;;;45.75;32.78;;;6.80;99.90;;;;;;5003971;28;20153;-54
2023/02/16 11:14:29;;;;;;;49.30;32.70;;;6.90;99.90;;;;;;5016797;28;20084;-56
2023/02/16 11:17:13;;;;;;;46.13;31.08;;;7.10;99.90;;;;;;5012668;28;20029;-53
2023/02/16 11:19:47;;;;;;;45.55;31.23;;;7.10;99.90;;;;;;5021046;28;20041;-53
2023/02/16 11:22:35;;;;;;;47.55;32.20;;;7.20;99.90;;;;;;5020569;28;20036;-57
2023/02/16 11:25:22;;;;;;;42.00;29.55;;;7.20;99.90;;;;;;5017062;28;20084;-55
2023/02/16 11:28:01;;;;;;;50.65;31.38;;;7.20;99.90;;;;;;5017245;28;20121;-54
2023/02/16 11:30:33;;;;;;;47.05;31.50;;;7.30;99.90;;;;;;5014629;28;20053;-51
2023/02/16 11:33:01;;;;;;;50.13;32.00;;;7.30;99.90;;;;;;4986415;23;20126;-82
2023/02/16 11:35:30;;;;;;;45.47;30.27;;;7.50;99.90;;;;;;4996966;28;20022;-83
2023/02/16 11:37:56;;;;;;;43.55;30.13;;;7.50;99.90;;;;;;4965225;28;20140;-82
2023/02/16 11:40:30;;;;;;;45.90;30.02;;;7.50;99.90;;;;;;4961012;28;20050;-83
2023/02/16 11:42:58;;;;;;;42.13;31.15;;;7.50;99.90;;;;;;4963635;28;20061;-82
2023/02/16 11:45:28;;;;;;;42.28;28.88;;;7.60;99.90;;;;;;4962894;28;20066;-82
2023/02/16 11:48:01;;;;;;;44.05;29.98;;;7.50;99.90;;;;;;4982389;28;20050;-82
2023/02/16 11:50:30;;;;;;;41.75;30.00;;;7.50;99.90;;;;;;4962374;28;20494;-82
2023/02/16 11:53:25;;;;;;;44.78;31.63;;;7.50;99.90;;;;;;4968976;28;20027;-83
2023/02/16 11:55:51;;;;;;;42.00;29.92;;;7.50;99.90;;;;;;4963401;28;20026;-82
2023/02/16 11:58:26;;;;;;;47.90;31.25;;;7.50;99.90;;;;;;4980998;28;20021;-82
2023/02/16 12:01:11;;;;;;;46.97;30.10;;;7.50;99.90;;;;;;4974833;28;20026;-83
2023/02/16 12:03:59;;;;;;;48.05;31.23;;;7.50;99.90;;;;;;4980934;28;20019;-82
2023/02/16 12:06:50;;;;;;;47.53;31.65;;;7.60;99.90;;;;;;4971224;28;20034;-82
2023/02/16 12:09:23;;;;;;;43.40;30.67;;;7.60;99.90;;;;;;4966901;28;20458;-82
2023/02/16 12:12:19;;;;;;;48.15;30.95;;;7.60;99.90;;;;;;4970236;28;20065;-83
2023/02/16 12:15:16;;;;;;;45.93;31.50;;;7.60;99.90;;;;;;4966713;28;20533;-82
2023/02/16 12:18:06;;;;;;;42.83;31.33;;;7.60;99.90;;;;;;4989434;28;20558;-81
2023/02/16 12:20:53;;;;;;;46.63;31.15;;;7.60;99.90;;;;;;4973029;28;20564;-82
2023/02/16 12:23:18;;;;;;;;;;;7.60;99.90;;;;;;4966013;28;20041;-84
2023/02/16 12:26:11;;;;;;;47.83;29.83;;;7.70;99.90;;;;;;4974413;28;19913;-82
2023/02/16 12:28:54;;;;;;;47.75;32.42;;;7.70;99.90;;;;;;4969765;28;20038;-82
2023/02/16 12:31:30;;;;;;;47.13;31.85;;;7.70;99.90;;;;;;4974743;28;20026;-82
2023/02/16 12:34:32;;;;;;;43.53;31.23;;;7.70;99.90;;;;;;4959976;28;20046;-82
2023/02/16 12:37:03;;;;;;;47.03;32.35;;;7.70;99.90;;;;;;4989439;28;20057;-82
2023/02/16 12:39:32;;;;;;;49.35;32.33;;;7.70;99.90;;;;;;4975724;28;20034;-82
2023/02/16 12:42:16;;;;;;;55.05;33.10;;;7.70;99.90;;;;;;4972907;28;20026;-82
2023/02/16 12:44:53;;;;;;;57.08;33.42;;;7.70;99.90;;;;;;4957885;28;20054;-81
2023/02/16 12:47:28;;;;;;;48.17;32.90;;;7.70;99.90;;;;;;4955370;28;20130;-82
2023/02/16 12:50:22;;;;;;;52.40;33.50;;;7.60;99.90;;;;;;4959264;28;20027;-82
2023/02/16 12:52:53;;;;;;;47.50;31.75;;;7.60;99.90;;;;;;4958832;28;20037;-82
2023/02/16 12:55:31;;;;;;;50.17;32.97;;;7.60;99.90;;;;;;4956633;28;20419;-83
2023/02/16 12:58:07;;;;;;;56.65;36.83;;;7.50;99.90;;;;;;4956356;28;20022;-82
2023/02/16 13:00:47;;;;;;;58.30;34.15;;;7.50;99.90;;;;;;4959191;28;20038;-81
2023/02/16 13:03:33;;;;;;;59.58;35.58;;;7.60;99.90;;;;;;4955484;28;20037;-82
2023/02/16 13:06:07;;;;;;;54.83;37.10;;;7.50;99.90;;;;;;4972116;28;20035;-82
2023/02/16 13:08:44;;;;;;;61.85;36.63;;;7.50;99.90;;;;;;4955469;28;20604;-82
2023/02/16 13:11:27;;;;;;;64.25;36.90;;;7.50;99.90;;;;;;4960128;28;20513;-82
2023/02/16 13:13:58;;;;;;;62.05;35.78;;;7.50;99.90;;;;;;4942797;28;20538;-82
2023/02/16 13:16:39;;;;;;;69.63;39.08;;;7.40;99.90;;;;;;4954313;28;20031;-82
2023/02/16 13:19:04;;;;;;;67.25;39.28;;;7.40;99.90;;;;;;4957609;28;20107;-81
2023/02/16 13:22:03;;;;;;;62.33;37.97;;;7.50;99.90;;;;;;4972588;28;20065;-82
2023/02/16 13:24:32;;;;;;;65.95;39.53;;;7.50;99.90;;;;;;4951218;28;20030;-82
2023/02/16 13:27:10;;;;;;;59.75;37.80;;;7.50;99.90;;;;;;4958135;28;20037;-82
2023/02/16 13:30:00;;;;;;;74.35;40.60;;;7.50;99.90;;;;;;4958047;28;20041;-82
2023/02/16 13:32:32;;;;;;;66.60;40.25;;;7.50;99.90;;;;;;4918181;28;20248;-82
2023/02/16 13:35:22;;;;;;;67.72;37.70;;;7.40;99.90;;;;;;4956353;28;20027;-82
2023/02/16 13:38:12;;;;;;;66.22;39.13;;;7.50;99.90;;;;;;4963457;28;20022;-82
2023/02/16 13:41:10;;;;;;;72.78;40.95;;;7.50;99.90;;;;;;4984258;28;20037;-82